sensor_id;sensor_type;location;lat;lon;timestamp;P1;durP1;ratioP1;P2;durP2;ratioP2
72406;SDS011;60396;47.550;18.828;2023-01-15T00:00:06;17.05;;;7.37;;
72406;SDS011;60396;47.550;18.828;2023-01-15T00:02:36;19.77;;;7.70;;
72406;SDS011;60396;47.550;18.828;2023-01-15T00:05:03;16.27;;;7.50;;
72406;SDS011;60396;47.550;18.828;2023-01-15T00:07:31;18.33;;;7.70;;
72406;SDS011;60396;47.550;18.828;2023-01-15T00:10:03;20.08;;;8.30;;
72406;SDS011;60396;47.550;18.828;2023-01-15T00:12:31;17.15;;;8.25;;
72406;SDS011;60396;47.550;18.828;2023-01-15T00:14:59;18.05;;;8.05;;
72406;SDS011;60396;47.550;18.828;2023-01-15T00:17:26;18.65;;;8.02;;
72406;SDS011;60396;47.550;18.828;2023-01-15T00:19:55;17.80;;;7.63;;
72406;SDS011;60396;47.550;18.828;2023-01-15T00:22:23;18.95;;;7.82;;
72406;SDS011;60396;47.550;18.828;2023-01-15T00:24:50;19.10;;;8.02;;
72406;SDS011;60396;47.550;18.828;2023-01-15T00:27:36;20.00;;;9.02;;
72406;SDS011;60396;47.550;18.828;2023-01-15T00:30:10;18.70;;;8.48;;
72406;SDS011;60396;47.550;18.828;2023-01-15T00:32:39;20.80;;;8.33;;
72406;SDS011;60396;47.550;18.828;2023-01-15T00:35:15;21.40;;;8.82;;
72406;SDS011;60396;47.550;18.828;2023-01-15T00:37:45;21.05;;;8.35;;
72406;SDS011;60396;47.550;18.828;2023-01-15T00:40:17;18.67;;;8.27;;
72406;SDS011;60396;47.550;18.828;2023-01-15T00:42:45;22.20;;;8.60;;
72406;SDS011;60396;47.550;18.828;2023-01-15T00:45:20;18.70;;;8.03;;
72406;SDS011;60396;47.550;18.828;2023-01-15T00:47:49;18.35;;;7.78;;
72406;SDS011;60396;47.550;18.828;2023-01-15T00:50:19;22.98;;;8.90;;
72406;SDS011;60396;47.550;18.828;2023-01-15T00:52:46;23.60;;;8.90;;
72406;SDS011;60396;47.550;18.828;2023-01-15T00:55:14;18.30;;;8.18;;
72406;SDS011;60396;47.550;18.828;2023-01-15T00:57:42;20.10;;;8.37;;
72406;SDS011;60396;47.550;18.828;2023-01-15T01:00:11;20.23;;;8.68;;
72406;SDS011;60396;47.550;18.828;2023-01-15T01:02:39;23.30;;;9.02;;
72406;SDS011;60396;47.550;18.828;2023-01-15T01:05:07;19.95;;;9.27;;
72406;SDS011;60396;47.550;18.828;2023-01-15T01:07:35;20.98;;;8.52;;
72406;SDS011;60396;47.550;18.828;2023-01-15T01:10:03;20.10;;;8.13;;
72406;SDS011;60396;47.550;18.828;2023-01-15T01:12:32;19.42;;;7.90;;
72406;SDS011;60396;47.550;18.828;2023-01-15T01:15:00;22.40;;;8.13;;
72406;SDS011;60396;47.550;18.828;2023-01-15T01:17:28;19.48;;;8.50;;
72406;SDS011;60396;47.550;18.828;2023-01-15T01:19:59;16.55;;;7.50;;
72406;SDS011;60396;47.550;18.828;2023-01-15T01:22:27;17.70;;;7.53;;
72406;SDS011;60396;47.550;18.828;2023-01-15T01:24:55;16.42;;;7.40;;
72406;SDS011;60396;47.550;18.828;2023-01-15T01:27:22;19.17;;;7.97;;
72406;SDS011;60396;47.550;18.828;2023-01-15T01:29:52;18.42;;;7.75;;
72406;SDS011;60396;47.550;18.828;2023-01-15T01:32:19;16.92;;;8.02;;
72406;SDS011;60396;47.550;18.828;2023-01-15T01:34:47;17.50;;;7.30;;
72406;SDS011;60396;47.550;18.828;2023-01-15T01:37:15;17.90;;;8.20;;
72406;SDS011;60396;47.550;18.828;2023-01-15T01:39:45;17.17;;;8.18;;
72406;SDS011;60396;47.550;18.828;2023-01-15T01:42:14;18.75;;;8.25;;
72406;SDS011;60396;47.550;18.828;2023-01-15T01:47:15;16.77;;;7.33;;
72406;SDS011;60396;47.550;18.828;2023-01-15T01:49:52;17.87;;;7.93;;
72406;SDS011;60396;47.550;18.828;2023-01-15T01:52:25;19.87;;;7.95;;
72406;SDS011;60396;47.550;18.828;2023-01-15T01:54:55;18.27;;;7.70;;
72406;SDS011;60396;47.550;18.828;2023-01-15T01:57:23;18.67;;;8.00;;
72406;SDS011;60396;47.550;18.828;2023-01-15T01:59:51;19.17;;;7.30;;
72406;SDS011;60396;47.550;18.828;2023-01-15T02:02:20;16.50;;;7.30;;
72406;SDS011;60396;47.550;18.828;2023-01-15T02:04:49;16.45;;;7.60;;
72406;SDS011;60396;47.550;18.828;2023-01-15T02:07:17;18.08;;;7.12;;
72406;SDS011;60396;47.550;18.828;2023-01-15T02:09:44;19.10;;;7.50;;
72406;SDS011;60396;47.550;18.828;2023-01-15T02:12:21;14.80;;;6.60;;
72406;SDS011;60396;47.550;18.828;2023-01-15T02:15:06;15.93;;;6.43;;
72406;SDS011;60396;47.550;18.828;2023-01-15T02:17:46;16.23;;;6.35;;
72406;SDS011;60396;47.550;18.828;2023-01-15T02:20:21;13.13;;;6.12;;
72406;SDS011;60396;47.550;18.828;2023-01-15T02:22:53;15.98;;;6.62;;
72406;SDS011;60396;47.550;18.828;2023-01-15T02:26:02;15.10;;;5.93;;
72406;SDS011;60396;47.550;18.828;2023-01-15T02:28:36;14.70;;;5.93;;
72406;SDS011;60396;47.550;18.828;2023-01-15T02:33:36;15.48;;;6.20;;
72406;SDS011;60396;47.550;18.828;2023-01-15T02:36:06;16.75;;;6.32;;
72406;SDS011;60396;47.550;18.828;2023-01-15T02:38:37;13.47;;;5.73;;
72406;SDS011;60396;47.550;18.828;2023-01-15T02:41:08;14.73;;;6.10;;
72406;SDS011;60396;47.550;18.828;2023-01-15T02:43:53;12.23;;;5.30;;
72406;SDS011;60396;47.550;18.828;2023-01-15T02:46:23;12.52;;;5.03;;
72406;SDS011;60396;47.550;18.828;2023-01-15T02:48:56;13.18;;;5.82;;
72406;SDS011;60396;47.550;18.828;2023-01-15T02:51:27;15.07;;;6.13;;
72406;SDS011;60396;47.550;18.828;2023-01-15T02:54:00;16.05;;;6.37;;
72406;SDS011;60396;47.550;18.828;2023-01-15T02:56:32;17.23;;;6.20;;
72406;SDS011;60396;47.550;18.828;2023-01-15T02:59:08;15.93;;;5.55;;
72406;SDS011;60396;47.550;18.828;2023-01-15T03:01:59;14.60;;;5.90;;
72406;SDS011;60396;47.550;18.828;2023-01-15T03:04:34;15.63;;;5.47;;
72406;SDS011;60396;47.550;18.828;2023-01-15T03:09:43;14.32;;;6.20;;
72406;SDS011;60396;47.550;18.828;2023-01-15T03:12:17;15.93;;;5.87;;
72406;SDS011;60396;47.550;18.828;2023-01-15T03:18:00;14.53;;;6.20;;
72406;SDS011;60396;47.550;18.828;2023-01-15T03:20:30;15.65;;;6.03;;
72406;SDS011;60396;47.550;18.828;2023-01-15T03:22:59;14.23;;;6.00;;
72406;SDS011;60396;47.550;18.828;2023-01-15T03:25:39;14.18;;;5.57;;
72406;SDS011;60396;47.550;18.828;2023-01-15T03:28:12;12.43;;;5.45;;
72406;SDS011;60396;47.550;18.828;2023-01-15T03:30:42;12.23;;;5.33;;
72406;SDS011;60396;47.550;18.828;2023-01-15T03:33:10;13.73;;;6.28;;
72406;SDS011;60396;47.550;18.828;2023-01-15T03:35:46;12.73;;;5.80;;
72406;SDS011;60396;47.550;18.828;2023-01-15T03:38:27;14.15;;;5.87;;
72406;SDS011;60396;47.550;18.828;2023-01-15T03:46:50;12.48;;;5.32;;
72406;SDS011;60396;47.550;18.828;2023-01-15T03:58:28;12.80;;;5.47;;
72406;SDS011;60396;47.550;18.828;2023-01-15T04:01:00;12.20;;;4.65;;
72406;SDS011;60396;47.550;18.828;2023-01-15T04:03:31;12.32;;;5.30;;
72406;SDS011;60396;47.550;18.828;2023-01-15T04:06:00;16.70;;;6.45;;
72406;SDS011;60396;47.550;18.828;2023-01-15T04:08:30;13.98;;;5.57;;
72406;SDS011;60396;47.550;18.828;2023-01-15T04:11:00;11.73;;;5.30;;
72406;SDS011;60396;47.550;18.828;2023-01-15T04:13:29;15.73;;;6.18;;
72406;SDS011;60396;47.550;18.828;2023-01-15T04:15:58;15.05;;;6.05;;
72406;SDS011;60396;47.550;18.828;2023-01-15T04:18:26;14.85;;;6.12;;
72406;SDS011;60396;47.550;18.828;2023-01-15T04:20:54;13.15;;;5.82;;
72406;SDS011;60396;47.550;18.828;2023-01-15T04:23:22;13.40;;;5.73;;
72406;SDS011;60396;47.550;18.828;2023-01-15T04:25:50;14.65;;;6.10;;
72406;SDS011;60396;47.550;18.828;2023-01-15T04:28:17;15.43;;;6.15;;
72406;SDS011;60396;47.550;18.828;2023-01-15T04:30:45;13.65;;;6.28;;
72406;SDS011;60396;47.550;18.828;2023-01-15T04:33:13;12.15;;;6.05;;
72406;SDS011;60396;47.550;18.828;2023-01-15T04:35:41;15.00;;;6.60;;
72406;SDS011;60396;47.550;18.828;2023-01-15T04:38:08;16.25;;;6.10;;
72406;SDS011;60396;47.550;18.828;2023-01-15T04:40:36;14.18;;;6.32;;
72406;SDS011;60396;47.550;18.828;2023-01-15T04:43:23;16.20;;;7.32;;
72406;SDS011;60396;47.550;18.828;2023-01-15T04:46:09;17.05;;;6.85;;
72406;SDS011;60396;47.550;18.828;2023-01-15T04:48:37;16.23;;;6.63;;
72406;SDS011;60396;47.550;18.828;2023-01-15T04:51:05;15.60;;;6.90;;
72406;SDS011;60396;47.550;18.828;2023-01-15T04:53:33;14.48;;;6.28;;
72406;SDS011;60396;47.550;18.828;2023-01-15T04:56:01;15.10;;;7.00;;
72406;SDS011;60396;47.550;18.828;2023-01-15T04:58:30;15.50;;;7.18;;
72406;SDS011;60396;47.550;18.828;2023-01-15T05:01:00;14.00;;;6.07;;
72406;SDS011;60396;47.550;18.828;2023-01-15T05:03:28;17.60;;;7.78;;
72406;SDS011;60396;47.550;18.828;2023-01-15T05:06:00;15.82;;;6.45;;
72406;SDS011;60396;47.550;18.828;2023-01-15T05:08:29;14.38;;;6.50;;
72406;SDS011;60396;47.550;18.828;2023-01-15T05:10:59;14.93;;;7.30;;
72406;SDS011;60396;47.550;18.828;2023-01-15T05:13:31;14.83;;;6.27;;
72406;SDS011;60396;47.550;18.828;2023-01-15T05:16:09;15.05;;;6.70;;
72406;SDS011;60396;47.550;18.828;2023-01-15T05:18:37;14.82;;;6.75;;
72406;SDS011;60396;47.550;18.828;2023-01-15T05:21:05;14.82;;;6.47;;
72406;SDS011;60396;47.550;18.828;2023-01-15T05:23:34;17.50;;;6.87;;
72406;SDS011;60396;47.550;18.828;2023-01-15T05:26:02;16.60;;;7.40;;
72406;SDS011;60396;47.550;18.828;2023-01-15T05:28:30;16.60;;;7.10;;
72406;SDS011;60396;47.550;18.828;2023-01-15T05:30:58;16.05;;;6.75;;
72406;SDS011;60396;47.550;18.828;2023-01-15T05:33:45;15.55;;;6.35;;
72406;SDS011;60396;47.550;18.828;2023-01-15T05:36:15;18.15;;;6.93;;
72406;SDS011;60396;47.550;18.828;2023-01-15T05:38:45;16.03;;;6.07;;
72406;SDS011;60396;47.550;18.828;2023-01-15T05:41:14;17.23;;;6.87;;
72406;SDS011;60396;47.550;18.828;2023-01-15T05:44:03;15.50;;;6.53;;
72406;SDS011;60396;47.550;18.828;2023-01-15T05:46:33;14.60;;;6.12;;
72406;SDS011;60396;47.550;18.828;2023-01-15T05:49:02;15.80;;;7.32;;
72406;SDS011;60396;47.550;18.828;2023-01-15T05:51:32;17.07;;;7.30;;
72406;SDS011;60396;47.550;18.828;2023-01-15T05:54:04;15.35;;;6.45;;
72406;SDS011;60396;47.550;18.828;2023-01-15T05:56:36;17.75;;;7.05;;
72406;SDS011;60396;47.550;18.828;2023-01-15T05:59:04;17.25;;;6.62;;
72406;SDS011;60396;47.550;18.828;2023-01-15T06:01:33;16.98;;;7.35;;
72406;SDS011;60396;47.550;18.828;2023-01-15T06:04:02;18.07;;;7.13;;
72406;SDS011;60396;47.550;18.828;2023-01-15T06:06:31;15.65;;;6.95;;
72406;SDS011;60396;47.550;18.828;2023-01-15T06:08:59;14.43;;;6.45;;
72406;SDS011;60396;47.550;18.828;2023-01-15T06:11:27;15.52;;;5.70;;
72406;SDS011;60396;47.550;18.828;2023-01-15T06:13:55;20.50;;;7.68;;
72406;SDS011;60396;47.550;18.828;2023-01-15T06:16:22;16.50;;;6.90;;
72406;SDS011;60396;47.550;18.828;2023-01-15T06:18:50;16.67;;;6.75;;
72406;SDS011;60396;47.550;18.828;2023-01-15T06:21:18;16.42;;;7.47;;
72406;SDS011;60396;47.550;18.828;2023-01-15T06:23:46;16.50;;;6.70;;
72406;SDS011;60396;47.550;18.828;2023-01-15T06:26:15;16.35;;;7.10;;
72406;SDS011;60396;47.550;18.828;2023-01-15T06:28:43;19.77;;;7.73;;
72406;SDS011;60396;47.550;18.828;2023-01-15T06:31:13;15.30;;;6.62;;
72406;SDS011;60396;47.550;18.828;2023-01-15T06:33:44;17.23;;;7.43;;
72406;SDS011;60396;47.550;18.828;2023-01-15T06:36:12;18.52;;;7.80;;
72406;SDS011;60396;47.550;18.828;2023-01-15T06:38:41;18.62;;;7.60;;
72406;SDS011;60396;47.550;18.828;2023-01-15T06:41:14;19.13;;;7.67;;
72406;SDS011;60396;47.550;18.828;2023-01-15T06:44:02;15.90;;;6.87;;
72406;SDS011;60396;47.550;18.828;2023-01-15T06:46:49;14.70;;;7.37;;
72406;SDS011;60396;47.550;18.828;2023-01-15T06:49:36;17.58;;;6.90;;
72406;SDS011;60396;47.550;18.828;2023-01-15T06:52:04;22.13;;;8.38;;
72406;SDS011;60396;47.550;18.828;2023-01-15T06:54:32;18.13;;;7.10;;
72406;SDS011;60396;47.550;18.828;2023-01-15T06:56:59;18.37;;;7.85;;
72406;SDS011;60396;47.550;18.828;2023-01-15T06:59:27;18.77;;;8.48;;
72406;SDS011;60396;47.550;18.828;2023-01-15T07:01:55;19.62;;;7.75;;
72406;SDS011;60396;47.550;18.828;2023-01-15T07:04:23;21.67;;;7.75;;
72406;SDS011;60396;47.550;18.828;2023-01-15T07:06:51;20.23;;;8.17;;
72406;SDS011;60396;47.550;18.828;2023-01-15T07:09:18;19.92;;;8.73;;
72406;SDS011;60396;47.550;18.828;2023-01-15T07:11:46;19.98;;;8.52;;
72406;SDS011;60396;47.550;18.828;2023-01-15T07:14:17;17.30;;;7.72;;
72406;SDS011;60396;47.550;18.828;2023-01-15T07:16:47;17.77;;;7.72;;
72406;SDS011;60396;47.550;18.828;2023-01-15T07:19:15;24.93;;;9.13;;
72406;SDS011;60396;47.550;18.828;2023-01-15T07:21:44;21.10;;;8.40;;
72406;SDS011;60396;47.550;18.828;2023-01-15T07:24:12;20.83;;;8.95;;
72406;SDS011;60396;47.550;18.828;2023-01-15T07:26:40;21.45;;;9.18;;
72406;SDS011;60396;47.550;18.828;2023-01-15T07:29:09;24.15;;;10.10;;
72406;SDS011;60396;47.550;18.828;2023-01-15T07:31:36;22.27;;;8.93;;
72406;SDS011;60396;47.550;18.828;2023-01-15T07:34:04;22.05;;;9.07;;
72406;SDS011;60396;47.550;18.828;2023-01-15T07:36:33;22.75;;;9.80;;
72406;SDS011;60396;47.550;18.828;2023-01-15T07:39:02;22.37;;;10.07;;
72406;SDS011;60396;47.550;18.828;2023-01-15T07:41:33;19.52;;;9.00;;
72406;SDS011;60396;47.550;18.828;2023-01-15T07:44:20;21.30;;;9.47;;
72406;SDS011;60396;47.550;18.828;2023-01-15T07:47:13;21.85;;;8.93;;
72406;SDS011;60396;47.550;18.828;2023-01-15T07:50:18;26.35;;;10.18;;
72406;SDS011;60396;47.550;18.828;2023-01-15T07:52:53;24.95;;;9.40;;
72406;SDS011;60396;47.550;18.828;2023-01-15T07:55:21;29.15;;;10.85;;
72406;SDS011;60396;47.550;18.828;2023-01-15T07:57:49;23.57;;;10.80;;
72406;SDS011;60396;47.550;18.828;2023-01-15T08:00:19;21.50;;;9.88;;
72406;SDS011;60396;47.550;18.828;2023-01-15T08:02:50;23.17;;;9.95;;
72406;SDS011;60396;47.550;18.828;2023-01-15T08:05:18;18.67;;;8.90;;
72406;SDS011;60396;47.550;18.828;2023-01-15T08:07:46;24.05;;;11.25;;
72406;SDS011;60396;47.550;18.828;2023-01-15T08:10:16;25.97;;;11.70;;
72406;SDS011;60396;47.550;18.828;2023-01-15T08:12:48;24.52;;;11.25;;
72406;SDS011;60396;47.550;18.828;2023-01-15T08:15:39;21.87;;;11.10;;
72406;SDS011;60396;47.550;18.828;2023-01-15T08:18:07;26.58;;;11.88;;
72406;SDS011;60396;47.550;18.828;2023-01-15T08:20:38;23.52;;;11.00;;
72406;SDS011;60396;47.550;18.828;2023-01-15T08:23:07;24.47;;;11.47;;
72406;SDS011;60396;47.550;18.828;2023-01-15T08:25:37;27.92;;;12.25;;
72406;SDS011;60396;47.550;18.828;2023-01-15T08:28:05;23.70;;;11.38;;
72406;SDS011;60396;47.550;18.828;2023-01-15T08:30:32;20.15;;;10.30;;
72406;SDS011;60396;47.550;18.828;2023-01-15T08:33:01;23.10;;;10.85;;
72406;SDS011;60396;47.550;18.828;2023-01-15T08:35:30;28.50;;;12.63;;
72406;SDS011;60396;47.550;18.828;2023-01-15T08:37:58;25.40;;;11.98;;
72406;SDS011;60396;47.550;18.828;2023-01-15T08:40:26;26.30;;;12.30;;
72406;SDS011;60396;47.550;18.828;2023-01-15T08:42:54;28.42;;;11.95;;
72406;SDS011;60396;47.550;18.828;2023-01-15T08:45:22;24.75;;;11.52;;
72406;SDS011;60396;47.550;18.828;2023-01-15T08:47:53;24.70;;;12.10;;
72406;SDS011;60396;47.550;18.828;2023-01-15T08:50:22;26.33;;;11.95;;
72406;SDS011;60396;47.550;18.828;2023-01-15T08:52:51;26.02;;;11.90;;
72406;SDS011;60396;47.550;18.828;2023-01-15T08:55:19;24.23;;;11.43;;
72406;SDS011;60396;47.550;18.828;2023-01-15T08:58:06;24.17;;;11.63;;
72406;SDS011;60396;47.550;18.828;2023-01-15T09:00:54;21.37;;;9.70;;
72406;SDS011;60396;47.550;18.828;2023-01-15T09:03:22;25.17;;;10.38;;
72406;SDS011;60396;47.550;18.828;2023-01-15T09:05:50;23.50;;;12.23;;
72406;SDS011;60396;47.550;18.828;2023-01-15T09:08:17;24.98;;;12.52;;
72406;SDS011;60396;47.550;18.828;2023-01-15T09:10:46;27.15;;;13.35;;
72406;SDS011;60396;47.550;18.828;2023-01-15T09:13:14;26.03;;;12.77;;
72406;SDS011;60396;47.550;18.828;2023-01-15T09:15:42;27.85;;;13.20;;
72406;SDS011;60396;47.550;18.828;2023-01-15T09:18:10;23.90;;;11.48;;
72406;SDS011;60396;47.550;18.828;2023-01-15T09:20:39;26.37;;;13.48;;
72406;SDS011;60396;47.550;18.828;2023-01-15T09:23:06;24.10;;;12.25;;
72406;SDS011;60396;47.550;18.828;2023-01-15T09:25:34;29.00;;;12.43;;
72406;SDS011;60396;47.550;18.828;2023-01-15T09:28:02;28.20;;;12.93;;
72406;SDS011;60396;47.550;18.828;2023-01-15T09:30:29;26.98;;;14.02;;
72406;SDS011;60396;47.550;18.828;2023-01-15T09:32:57;27.45;;;13.20;;
72406;SDS011;60396;47.550;18.828;2023-01-15T09:35:25;29.33;;;12.98;;
72406;SDS011;60396;47.550;18.828;2023-01-15T09:37:53;26.60;;;12.43;;
72406;SDS011;60396;47.550;18.828;2023-01-15T09:40:36;19.05;;;9.73;;
72406;SDS011;60396;47.550;18.828;2023-01-15T09:45:49;25.52;;;11.90;;
72406;SDS011;60396;47.550;18.828;2023-01-15T09:48:32;21.25;;;10.98;;
72406;SDS011;60396;47.550;18.828;2023-01-15T09:56:55;22.35;;;11.45;;
72406;SDS011;60396;47.550;18.828;2023-01-15T10:02:11;19.58;;;9.88;;
72406;SDS011;60396;47.550;18.828;2023-01-15T10:05:11;23.77;;;10.57;;
72406;SDS011;60396;47.550;18.828;2023-01-15T10:10:34;23.60;;;10.93;;
72406;SDS011;60396;47.550;18.828;2023-01-15T10:13:28;18.23;;;9.30;;
72406;SDS011;60396;47.550;18.828;2023-01-15T10:16:02;21.27;;;10.40;;
72406;SDS011;60396;47.550;18.828;2023-01-15T10:18:30;18.27;;;8.97;;
72406;SDS011;60396;47.550;18.828;2023-01-15T10:24:01;20.20;;;10.43;;
72406;SDS011;60396;47.550;18.828;2023-01-15T10:29:16;20.98;;;10.82;;
72406;SDS011;60396;47.550;18.828;2023-01-15T10:31:49;18.50;;;9.63;;
72406;SDS011;60396;47.550;18.828;2023-01-15T10:37:12;14.77;;;7.65;;
72406;SDS011;60396;47.550;18.828;2023-01-15T10:42:53;18.27;;;9.32;;
72406;SDS011;60396;47.550;18.828;2023-01-15T10:45:35;16.57;;;8.40;;
72406;SDS011;60396;47.550;18.828;2023-01-15T10:50:57;17.58;;;8.75;;
72406;SDS011;60396;47.550;18.828;2023-01-15T10:53:33;19.27;;;9.05;;
72406;SDS011;60396;47.550;18.828;2023-01-15T10:56:20;21.08;;;10.10;;
72406;SDS011;60396;47.550;18.828;2023-01-15T11:01:53;17.90;;;8.50;;
72406;SDS011;60396;47.550;18.828;2023-01-15T11:04:21;17.55;;;9.05;;
72406;SDS011;60396;47.550;18.828;2023-01-15T11:06:49;17.45;;;8.30;;
72406;SDS011;60396;47.550;18.828;2023-01-15T11:09:19;18.45;;;8.93;;
72406;SDS011;60396;47.550;18.828;2023-01-15T11:11:52;19.57;;;8.07;;
72406;SDS011;60396;47.550;18.828;2023-01-15T11:14:40;15.27;;;8.02;;
72406;SDS011;60396;47.550;18.828;2023-01-15T11:17:31;17.00;;;8.65;;
72406;SDS011;60396;47.550;18.828;2023-01-15T11:23:24;17.20;;;7.93;;
72406;SDS011;60396;47.550;18.828;2023-01-15T11:25:53;17.00;;;9.00;;
72406;SDS011;60396;47.550;18.828;2023-01-15T11:31:10;19.05;;;8.05;;
72406;SDS011;60396;47.550;18.828;2023-01-15T11:33:38;16.40;;;7.55;;
72406;SDS011;60396;47.550;18.828;2023-01-15T11:36:07;16.65;;;8.07;;
72406;SDS011;60396;47.550;18.828;2023-01-15T11:38:47;15.90;;;7.37;;
72406;SDS011;60396;47.550;18.828;2023-01-15T11:43:56;17.35;;;8.18;;
72406;SDS011;60396;47.550;18.828;2023-01-15T11:46:45;16.23;;;7.25;;
72406;SDS011;60396;47.550;18.828;2023-01-15T11:49:32;15.85;;;7.87;;
72406;SDS011;60396;47.550;18.828;2023-01-15T11:52:19;19.67;;;8.07;;
72406;SDS011;60396;47.550;18.828;2023-01-15T11:54:50;17.00;;;7.97;;
72406;SDS011;60396;47.550;18.828;2023-01-15T11:57:23;17.12;;;8.20;;
72406;SDS011;60396;47.550;18.828;2023-01-15T11:59:53;16.02;;;7.95;;
72406;SDS011;60396;47.550;18.828;2023-01-15T12:02:39;20.48;;;8.85;;
72406;SDS011;60396;47.550;18.828;2023-01-15T12:05:18;17.77;;;7.90;;
72406;SDS011;60396;47.550;18.828;2023-01-15T12:07:51;17.00;;;7.55;;
72406;SDS011;60396;47.550;18.828;2023-01-15T12:10:25;17.35;;;7.68;;
72406;SDS011;60396;47.550;18.828;2023-01-15T12:32:59;15.23;;;7.60;;
72406;SDS011;60396;47.550;18.828;2023-01-15T12:35:41;18.00;;;8.63;;
72406;SDS011;60396;47.550;18.828;2023-01-15T12:38:23;19.30;;;9.05;;
72406;SDS011;60396;47.550;18.828;2023-01-15T12:41:07;15.98;;;8.05;;
72406;SDS011;60396;47.550;18.828;2023-01-15T12:43:37;16.55;;;8.40;;
72406;SDS011;60396;47.550;18.828;2023-01-15T12:46:27;18.40;;;9.13;;
72406;SDS011;60396;47.550;18.828;2023-01-15T12:49:02;18.90;;;8.38;;
72406;SDS011;60396;47.550;18.828;2023-01-15T12:51:49;19.37;;;9.25;;
72406;SDS011;60396;47.550;18.828;2023-01-15T12:54:22;17.48;;;8.07;;
72406;SDS011;60396;47.550;18.828;2023-01-15T12:56:59;18.33;;;8.10;;
72406;SDS011;60396;47.550;18.828;2023-01-15T12:59:36;15.87;;;7.27;;
72406;SDS011;60396;47.550;18.828;2023-01-15T13:05:01;14.10;;;6.97;;
72406;SDS011;60396;47.550;18.828;2023-01-15T13:10:28;16.20;;;7.75;;
72406;SDS011;60396;47.550;18.828;2023-01-15T13:13:43;16.33;;;8.53;;
72406;SDS011;60396;47.550;18.828;2023-01-15T13:16:13;18.45;;;8.00;;
72406;SDS011;60396;47.550;18.828;2023-01-15T13:21:42;16.85;;;8.40;;
72406;SDS011;60396;47.550;18.828;2023-01-15T13:24:39;17.00;;;7.03;;
72406;SDS011;60396;47.550;18.828;2023-01-15T13:27:55;13.37;;;6.30;;
72406;SDS011;60396;47.550;18.828;2023-01-15T13:30:25;16.00;;;7.07;;
72406;SDS011;60396;47.550;18.828;2023-01-15T13:33:14;16.35;;;6.93;;
72406;SDS011;60396;47.550;18.828;2023-01-15T13:35:47;16.08;;;7.50;;
72406;SDS011;60396;47.550;18.828;2023-01-15T13:38:22;16.83;;;7.28;;
72406;SDS011;60396;47.550;18.828;2023-01-15T13:40:53;16.13;;;7.40;;
72406;SDS011;60396;47.550;18.828;2023-01-15T13:43:40;20.67;;;8.35;;
72406;SDS011;60396;47.550;18.828;2023-01-15T13:46:10;16.73;;;7.72;;
72406;SDS011;60396;47.550;18.828;2023-01-15T13:48:43;15.68;;;7.40;;
72406;SDS011;60396;47.550;18.828;2023-01-15T13:51:32;18.90;;;7.60;;
72406;SDS011;60396;47.550;18.828;2023-01-15T13:54:08;15.47;;;7.43;;
72406;SDS011;60396;47.550;18.828;2023-01-15T13:56:42;16.12;;;6.45;;
72406;SDS011;60396;47.550;18.828;2023-01-15T14:02:26;18.48;;;7.90;;
72406;SDS011;60396;47.550;18.828;2023-01-15T14:04:58;15.48;;;7.90;;
72406;SDS011;60396;47.550;18.828;2023-01-15T14:07:31;15.80;;;7.17;;
72406;SDS011;60396;47.550;18.828;2023-01-15T14:10:20;16.95;;;7.93;;
72406;SDS011;60396;47.550;18.828;2023-01-15T14:29:42;16.55;;;8.13;;
72406;SDS011;60396;47.550;18.828;2023-01-15T14:32:27;19.48;;;8.60;;
72406;SDS011;60396;47.550;18.828;2023-01-15T14:35:03;18.23;;;8.33;;
72406;SDS011;60396;47.550;18.828;2023-01-15T14:40:33;18.37;;;8.90;;
72406;SDS011;60396;47.550;18.828;2023-01-15T14:43:13;16.77;;;7.70;;
72406;SDS011;60396;47.550;18.828;2023-01-15T14:45:44;15.25;;;7.62;;
72406;SDS011;60396;47.550;18.828;2023-01-15T14:48:19;18.73;;;8.17;;
72406;SDS011;60396;47.550;18.828;2023-01-15T14:50:47;15.25;;;7.30;;
72406;SDS011;60396;47.550;18.828;2023-01-15T14:53:19;17.70;;;8.07;;
72406;SDS011;60396;47.550;18.828;2023-01-15T14:55:54;17.02;;;7.95;;
72406;SDS011;60396;47.550;18.828;2023-01-15T14:58:35;18.25;;;7.68;;
72406;SDS011;60396;47.550;18.828;2023-01-15T15:01:11;16.90;;;7.73;;
72406;SDS011;60396;47.550;18.828;2023-01-15T15:03:45;16.95;;;7.80;;
72406;SDS011;60396;47.550;18.828;2023-01-15T15:06:15;14.60;;;8.02;;
72406;SDS011;60396;47.550;18.828;2023-01-15T15:08:43;17.98;;;8.40;;
72406;SDS011;60396;47.550;18.828;2023-01-15T15:11:14;17.17;;;8.13;;
72406;SDS011;60396;47.550;18.828;2023-01-15T15:14:06;17.83;;;8.23;;
72406;SDS011;60396;47.550;18.828;2023-01-15T15:16:39;16.25;;;7.53;;
72406;SDS011;60396;47.550;18.828;2023-01-15T15:21:41;18.00;;;8.13;;
72406;SDS011;60396;47.550;18.828;2023-01-15T15:26:49;21.07;;;8.40;;
72406;SDS011;60396;47.550;18.828;2023-01-15T15:29:17;17.83;;;8.43;;
72406;SDS011;60396;47.550;18.828;2023-01-15T15:31:47;16.23;;;7.87;;
72406;SDS011;60396;47.550;18.828;2023-01-15T15:34:26;20.65;;;9.00;;
72406;SDS011;60396;47.550;18.828;2023-01-15T15:36:55;18.15;;;8.52;;
72406;SDS011;60396;47.550;18.828;2023-01-15T15:39:33;18.03;;;8.67;;
72406;SDS011;60396;47.550;18.828;2023-01-15T15:42:03;19.87;;;7.95;;
72406;SDS011;60396;47.550;18.828;2023-01-15T15:45:00;19.83;;;8.85;;
72406;SDS011;60396;47.550;18.828;2023-01-15T15:47:47;17.87;;;8.70;;
72406;SDS011;60396;47.550;18.828;2023-01-15T15:50:34;21.27;;;9.05;;
72406;SDS011;60396;47.550;18.828;2023-01-15T15:53:02;19.70;;;9.43;;
72406;SDS011;60396;47.550;18.828;2023-01-15T15:55:36;20.62;;;8.95;;
72406;SDS011;60396;47.550;18.828;2023-01-15T15:58:07;22.35;;;9.35;;
72406;SDS011;60396;47.550;18.828;2023-01-15T16:00:39;21.10;;;9.68;;
72406;SDS011;60396;47.550;18.828;2023-01-15T16:03:16;17.92;;;8.65;;
72406;SDS011;60396;47.550;18.828;2023-01-15T16:05:53;18.90;;;9.07;;
72406;SDS011;60396;47.550;18.828;2023-01-15T16:08:28;19.90;;;9.35;;
72406;SDS011;60396;47.550;18.828;2023-01-15T16:11:06;19.85;;;9.95;;
72406;SDS011;60396;47.550;18.828;2023-01-15T16:13:42;22.75;;;10.95;;
72406;SDS011;60396;47.550;18.828;2023-01-15T16:16:11;20.35;;;9.80;;
72406;SDS011;60396;47.550;18.828;2023-01-15T16:18:44;23.07;;;10.90;;
72406;SDS011;60396;47.550;18.828;2023-01-15T16:21:16;22.00;;;10.40;;
72406;SDS011;60396;47.550;18.828;2023-01-15T16:23:54;20.60;;;10.18;;
72406;SDS011;60396;47.550;18.828;2023-01-15T16:26:27;25.50;;;11.32;;
72406;SDS011;60396;47.550;18.828;2023-01-15T16:29:14;25.15;;;12.32;;
72406;SDS011;60396;47.550;18.828;2023-01-15T16:31:44;36.93;;;16.90;;
72406;SDS011;60396;47.550;18.828;2023-01-15T16:34:34;27.87;;;13.77;;
72406;SDS011;60396;47.550;18.828;2023-01-15T16:37:00;29.90;;;14.68;;
72406;SDS011;60396;47.550;18.828;2023-01-15T16:42:21;26.20;;;12.98;;
72406;SDS011;60396;47.550;18.828;2023-01-15T16:45:18;22.60;;;12.60;;
72406;SDS011;60396;47.550;18.828;2023-01-15T16:50:30;25.00;;;12.95;;
72406;SDS011;60396;47.550;18.828;2023-01-15T16:52:59;25.85;;;13.23;;
72406;SDS011;60396;47.550;18.828;2023-01-15T16:55:42;29.48;;;13.90;;
72406;SDS011;60396;47.550;18.828;2023-01-15T17:00:39;54.08;;;20.35;;
72406;SDS011;60396;47.550;18.828;2023-01-15T17:03:32;40.75;;;17.30;;